sensor_id;sensor_type;location;lat;lon;timestamp;P1;durP1;ratioP1;P2;durP2;ratioP2
65552;SDS011;52465;51.560;14.368;2022-08-16T00:00:03;4.32;;;3.45;;
65552;SDS011;52465;51.560;14.368;2022-08-16T00:02:30;4.50;;;3.63;;
65552;SDS011;52465;51.560;14.368;2022-08-16T00:04:56;4.18;;;3.47;;
65552;SDS011;52465;51.560;14.368;2022-08-16T00:07:22;4.07;;;3.60;;
65552;SDS011;52465;51.560;14.368;2022-08-16T00:09:47;3.83;;;3.42;;
65552;SDS011;52465;51.560;14.368;2022-08-16T00:12:12;4.30;;;3.33;;
65552;SDS011;52465;51.560;14.368;2022-08-16T00:14:38;3.50;;;3.20;;
65552;SDS011;52465;51.560;14.368;2022-08-16T00:17:03;4.40;;;3.17;;
65552;SDS011;52465;51.560;14.368;2022-08-16T00:19:30;3.95;;;3.28;;
65552;SDS011;52465;51.560;14.368;2022-08-16T00:21:57;3.90;;;3.28;;
65552;SDS011;52465;51.560;14.368;2022-08-16T00:24:23;4.50;;;3.40;;
65552;SDS011;52465;51.560;14.368;2022-08-16T00:26:50;3.63;;;3.08;;
65552;SDS011;52465;51.560;14.368;2022-08-16T00:29:16;3.67;;;3.13;;
65552;SDS011;52465;51.560;14.368;2022-08-16T00:31:43;3.88;;;2.88;;
65552;SDS011;52465;51.560;14.368;2022-08-16T00:34:10;4.00;;;3.30;;
65552;SDS011;52465;51.560;14.368;2022-08-16T00:36:36;4.05;;;3.40;;
65552;SDS011;52465;51.560;14.368;2022-08-16T00:39:01;4.38;;;3.20;;
65552;SDS011;52465;51.560;14.368;2022-08-16T00:41:27;4.82;;;3.90;;
65552;SDS011;52465;51.560;14.368;2022-08-16T00:43:53;3.83;;;3.35;;
65552;SDS011;52465;51.560;14.368;2022-08-16T00:46:22;3.60;;;3.10;;
65552;SDS011;52465;51.560;14.368;2022-08-16T00:48:51;4.47;;;3.35;;
65552;SDS011;52465;51.560;14.368;2022-08-16T00:51:18;3.85;;;3.20;;
65552;SDS011;52465;51.560;14.368;2022-08-16T00:53:46;3.95;;;3.50;;
65552;SDS011;52465;51.560;14.368;2022-08-16T00:56:14;5.03;;;3.33;;
65552;SDS011;52465;51.560;14.368;2022-08-16T00:58:43;4.65;;;3.47;;
65552;SDS011;52465;51.560;14.368;2022-08-16T01:01:11;4.57;;;3.30;;
65552;SDS011;52465;51.560;14.368;2022-08-16T01:03:37;4.03;;;3.63;;
65552;SDS011;52465;51.560;14.368;2022-08-16T01:06:05;5.65;;;3.63;;
65552;SDS011;52465;51.560;14.368;2022-08-16T01:08:31;4.93;;;3.50;;
65552;SDS011;52465;51.560;14.368;2022-08-16T01:10:59;4.80;;;3.83;;
65552;SDS011;52465;51.560;14.368;2022-08-16T01:13:26;4.60;;;3.60;;
65552;SDS011;52465;51.560;14.368;2022-08-16T01:15:59;4.65;;;4.00;;
65552;SDS011;52465;51.560;14.368;2022-08-16T01:18:39;4.22;;;3.38;;
65552;SDS011;52465;51.560;14.368;2022-08-16T01:21:11;4.65;;;3.50;;
65552;SDS011;52465;51.560;14.368;2022-08-16T01:23:49;3.67;;;3.13;;
65552;SDS011;52465;51.560;14.368;2022-08-16T01:26:31;4.18;;;3.08;;
65552;SDS011;52465;51.560;14.368;2022-08-16T01:28:59;4.18;;;3.42;;
65552;SDS011;52465;51.560;14.368;2022-08-16T01:33:54;5.13;;;3.30;;
65552;SDS011;52465;51.560;14.368;2022-08-16T01:36:19;5.45;;;3.13;;
65552;SDS011;52465;51.560;14.368;2022-08-16T01:38:46;3.85;;;3.13;;
65552;SDS011;52465;51.560;14.368;2022-08-16T01:41:14;4.40;;;3.20;;
65552;SDS011;52465;51.560;14.368;2022-08-16T01:43:45;3.75;;;3.30;;
65552;SDS011;52465;51.560;14.368;2022-08-16T01:46:29;3.67;;;3.17;;
65552;SDS011;52465;51.560;14.368;2022-08-16T01:49:01;3.70;;;3.20;;
65552;SDS011;52465;51.560;14.368;2022-08-16T01:51:31;4.47;;;3.33;;
65552;SDS011;52465;51.560;14.368;2022-08-16T01:53:57;5.60;;;3.50;;
65552;SDS011;52465;51.560;14.368;2022-08-16T01:56:23;4.45;;;3.40;;
65552;SDS011;52465;51.560;14.368;2022-08-16T01:58:50;4.28;;;3.53;;
65552;SDS011;52465;51.560;14.368;2022-08-16T02:01:17;3.63;;;3.30;;
65552;SDS011;52465;51.560;14.368;2022-08-16T02:03:42;4.00;;;3.20;;
65552;SDS011;52465;51.560;14.368;2022-08-16T02:06:07;3.63;;;3.22;;
65552;SDS011;52465;51.560;14.368;2022-08-16T02:08:33;4.63;;;3.42;;
65552;SDS011;52465;51.560;14.368;2022-08-16T02:10:59;4.28;;;3.20;;
65552;SDS011;52465;51.560;14.368;2022-08-16T02:13:24;4.05;;;3.47;;
65552;SDS011;52465;51.560;14.368;2022-08-16T02:15:50;4.18;;;3.10;;
65552;SDS011;52465;51.560;14.368;2022-08-16T02:18:15;3.97;;;3.10;;
65552;SDS011;52465;51.560;14.368;2022-08-16T02:20:42;3.67;;;3.17;;
65552;SDS011;52465;51.560;14.368;2022-08-16T02:23:13;3.42;;;3.03;;
65552;SDS011;52465;51.560;14.368;2022-08-16T02:25:39;3.88;;;3.30;;
65552;SDS011;52465;51.560;14.368;2022-08-16T02:28:04;4.55;;;2.83;;
65552;SDS011;52465;51.560;14.368;2022-08-16T02:30:30;3.88;;;3.10;;
65552;SDS011;52465;51.560;14.368;2022-08-16T02:32:56;3.22;;;2.92;;
65552;SDS011;52465;51.560;14.368;2022-08-16T02:35:22;4.70;;;3.20;;
65552;SDS011;52465;51.560;14.368;2022-08-16T02:37:50;3.60;;;3.10;;
65552;SDS011;52465;51.560;14.368;2022-08-16T02:40:17;3.95;;;3.25;;
65552;SDS011;52465;51.560;14.368;2022-08-16T02:42:43;3.35;;;3.05;;
65552;SDS011;52465;51.560;14.368;2022-08-16T02:45:09;3.42;;;3.13;;
65552;SDS011;52465;51.560;14.368;2022-08-16T02:47:35;3.70;;;3.28;;
65552;SDS011;52465;51.560;14.368;2022-08-16T02:50:00;3.88;;;3.10;;
65552;SDS011;52465;51.560;14.368;2022-08-16T02:52:25;3.83;;;3.10;;
65552;SDS011;52465;51.560;14.368;2022-08-16T02:54:51;3.58;;;3.17;;
65552;SDS011;52465;51.560;14.368;2022-08-16T02:57:16;3.53;;;3.22;;
65552;SDS011;52465;51.560;14.368;2022-08-16T02:59:41;3.53;;;3.10;;
65552;SDS011;52465;51.560;14.368;2022-08-16T03:02:07;3.55;;;3.25;;
65552;SDS011;52465;51.560;14.368;2022-08-16T03:04:34;3.47;;;3.10;;
65552;SDS011;52465;51.560;14.368;2022-08-16T03:07:00;3.80;;;3.10;;
65552;SDS011;52465;51.560;14.368;2022-08-16T03:09:25;3.40;;;2.90;;
65552;SDS011;52465;51.560;14.368;2022-08-16T03:11:50;3.80;;;3.30;;
65552;SDS011;52465;51.560;14.368;2022-08-16T03:14:16;4.43;;;3.33;;
65552;SDS011;52465;51.560;14.368;2022-08-16T03:16:41;3.90;;;3.28;;
65552;SDS011;52465;51.560;14.368;2022-08-16T03:19:06;3.35;;;2.97;;
65552;SDS011;52465;51.560;14.368;2022-08-16T03:21:32;4.50;;;3.05;;
65552;SDS011;52465;51.560;14.368;2022-08-16T03:23:58;2.83;;;2.53;;
65552;SDS011;52465;51.560;14.368;2022-08-16T03:26:23;3.90;;;3.03;;
65552;SDS011;52465;51.560;14.368;2022-08-16T03:28:48;3.13;;;2.80;;
65552;SDS011;52465;51.560;14.368;2022-08-16T03:31:14;3.30;;;3.00;;
65552;SDS011;52465;51.560;14.368;2022-08-16T03:33:39;3.25;;;2.85;;
65552;SDS011;52465;51.560;14.368;2022-08-16T03:36:05;3.60;;;3.20;;
65552;SDS011;52465;51.560;14.368;2022-08-16T03:38:31;3.88;;;3.03;;
65552;SDS011;52465;51.560;14.368;2022-08-16T03:40:58;4.32;;;3.15;;
65552;SDS011;52465;51.560;14.368;2022-08-16T03:43:24;3.35;;;2.90;;
65552;SDS011;52465;51.560;14.368;2022-08-16T03:45:51;4.13;;;3.20;;
65552;SDS011;52465;51.560;14.368;2022-08-16T03:48:17;4.18;;;3.33;;
65552;SDS011;52465;51.560;14.368;2022-08-16T03:50:43;3.78;;;3.08;;
65552;SDS011;52465;51.560;14.368;2022-08-16T03:53:08;4.32;;;3.17;;
65552;SDS011;52465;51.560;14.368;2022-08-16T03:55:34;4.47;;;3.60;;
65552;SDS011;52465;51.560;14.368;2022-08-16T03:57:59;5.65;;;3.60;;
65552;SDS011;52465;51.560;14.368;2022-08-16T04:00:27;3.90;;;3.47;;
65552;SDS011;52465;51.560;14.368;2022-08-16T04:02:54;4.07;;;3.33;;
65552;SDS011;52465;51.560;14.368;2022-08-16T04:05:21;3.47;;;3.17;;
65552;SDS011;52465;51.560;14.368;2022-08-16T04:07:47;4.20;;;3.42;;
65552;SDS011;52465;51.560;14.368;2022-08-16T04:10:12;4.20;;;3.67;;
65552;SDS011;52465;51.560;14.368;2022-08-16T04:12:38;3.80;;;3.28;;
65552;SDS011;52465;51.560;14.368;2022-08-16T04:15:07;3.58;;;3.10;;
65552;SDS011;52465;51.560;14.368;2022-08-16T04:17:35;4.25;;;3.40;;
65552;SDS011;52465;51.560;14.368;2022-08-16T04:20:00;4.53;;;3.08;;
65552;SDS011;52465;51.560;14.368;2022-08-16T04:22:28;3.75;;;3.40;;
65552;SDS011;52465;51.560;14.368;2022-08-16T04:24:53;3.38;;;2.90;;
65552;SDS011;52465;51.560;14.368;2022-08-16T04:27:18;4.03;;;3.23;;
65552;SDS011;52465;51.560;14.368;2022-08-16T04:29:44;3.27;;;2.77;;
65552;SDS011;52465;51.560;14.368;2022-08-16T04:32:09;3.72;;;3.30;;
65552;SDS011;52465;51.560;14.368;2022-08-16T04:34:35;4.55;;;2.85;;
65552;SDS011;52465;51.560;14.368;2022-08-16T04:37:03;3.67;;;3.03;;
65552;SDS011;52465;51.560;14.368;2022-08-16T04:39:30;3.83;;;3.42;;
65552;SDS011;52465;51.560;14.368;2022-08-16T04:41:57;4.28;;;3.40;;
65552;SDS011;52465;51.560;14.368;2022-08-16T04:44:22;3.22;;;2.90;;
65552;SDS011;52465;51.560;14.368;2022-08-16T04:46:48;3.60;;;3.10;;
65552;SDS011;52465;51.560;14.368;2022-08-16T04:49:13;3.72;;;3.30;;
65552;SDS011;52465;51.560;14.368;2022-08-16T04:51:38;3.50;;;3.20;;
65552;SDS011;52465;51.560;14.368;2022-08-16T04:54:05;3.45;;;3.13;;
65552;SDS011;52465;51.560;14.368;2022-08-16T04:56:31;3.97;;;3.58;;
65552;SDS011;52465;51.560;14.368;2022-08-16T04:58:56;3.90;;;3.50;;
65552;SDS011;52465;51.560;14.368;2022-08-16T05:01:25;3.45;;;3.15;;
65552;SDS011;52465;51.560;14.368;2022-08-16T05:03:50;4.35;;;3.40;;
65552;SDS011;52465;51.560;14.368;2022-08-16T05:06:16;3.30;;;3.00;;
65552;SDS011;52465;51.560;14.368;2022-08-16T05:08:41;3.58;;;3.25;;
65552;SDS011;52465;51.560;14.368;2022-08-16T05:11:07;4.65;;;3.55;;
65552;SDS011;52465;51.560;14.368;2022-08-16T05:13:35;4.85;;;3.88;;
65552;SDS011;52465;51.560;14.368;2022-08-16T05:16:03;4.65;;;3.50;;
65552;SDS011;52465;51.560;14.368;2022-08-16T05:18:29;6.32;;;3.95;;
65552;SDS011;52465;51.560;14.368;2022-08-16T05:20:55;5.38;;;3.63;;
65552;SDS011;52465;51.560;14.368;2022-08-16T05:23:21;4.03;;;3.22;;
65552;SDS011;52465;51.560;14.368;2022-08-16T05:25:47;4.80;;;3.65;;
65552;SDS011;52465;51.560;14.368;2022-08-16T05:28:12;4.65;;;3.80;;
65552;SDS011;52465;51.560;14.368;2022-08-16T05:30:38;4.05;;;3.65;;
65552;SDS011;52465;51.560;14.368;2022-08-16T05:33:03;4.93;;;3.63;;
65552;SDS011;52465;51.560;14.368;2022-08-16T05:35:29;6.22;;;3.83;;
65552;SDS011;52465;51.560;14.368;2022-08-16T05:37:55;5.28;;;3.17;;
65552;SDS011;52465;51.560;14.368;2022-08-16T05:40:20;4.05;;;3.42;;
65552;SDS011;52465;51.560;14.368;2022-08-16T05:42:45;4.57;;;3.35;;
65552;SDS011;52465;51.560;14.368;2022-08-16T05:45:11;4.65;;;3.83;;
65552;SDS011;52465;51.560;14.368;2022-08-16T05:47:36;4.38;;;3.53;;
65552;SDS011;52465;51.560;14.368;2022-08-16T05:50:02;5.25;;;3.80;;
65552;SDS011;52465;51.560;14.368;2022-08-16T05:52:28;4.07;;;3.22;;
65552;SDS011;52465;51.560;14.368;2022-08-16T05:54:53;4.90;;;4.03;;
65552;SDS011;52465;51.560;14.368;2022-08-16T05:57:19;4.60;;;3.97;;
65552;SDS011;52465;51.560;14.368;2022-08-16T05:59:45;4.07;;;3.67;;
65552;SDS011;52465;51.560;14.368;2022-08-16T06:02:11;4.63;;;3.45;;
65552;SDS011;52465;51.560;14.368;2022-08-16T06:04:37;5.43;;;3.75;;
65552;SDS011;52465;51.560;14.368;2022-08-16T06:07:03;4.00;;;3.58;;
65552;SDS011;52465;51.560;14.368;2022-08-16T06:09:30;4.50;;;3.30;;
65552;SDS011;52465;51.560;14.368;2022-08-16T06:11:56;4.43;;;3.60;;
65552;SDS011;52465;51.560;14.368;2022-08-16T06:14:21;4.35;;;3.72;;
65552;SDS011;52465;51.560;14.368;2022-08-16T06:16:46;4.60;;;3.78;;
65552;SDS011;52465;51.560;14.368;2022-08-16T06:19:11;4.13;;;3.63;;
65552;SDS011;52465;51.560;14.368;2022-08-16T06:21:37;4.28;;;3.65;;
65552;SDS011;52465;51.560;14.368;2022-08-16T06:24:02;4.18;;;3.45;;
65552;SDS011;52465;51.560;14.368;2022-08-16T06:26:28;4.43;;;3.70;;
65552;SDS011;52465;51.560;14.368;2022-08-16T06:28:54;5.35;;;4.00;;
65552;SDS011;52465;51.560;14.368;2022-08-16T06:31:19;6.82;;;5.20;;
65552;SDS011;52465;51.560;14.368;2022-08-16T06:33:44;7.28;;;5.32;;
65552;SDS011;52465;51.560;14.368;2022-08-16T06:36:11;7.15;;;5.13;;
65552;SDS011;52465;51.560;14.368;2022-08-16T06:38:37;7.68;;;5.40;;
65552;SDS011;52465;51.560;14.368;2022-08-16T06:41:03;6.07;;;4.95;;
65552;SDS011;52465;51.560;14.368;2022-08-16T06:43:30;6.25;;;4.80;;
65552;SDS011;52465;51.560;14.368;2022-08-16T06:45:56;5.72;;;4.80;;
65552;SDS011;52465;51.560;14.368;2022-08-16T06:48:21;6.05;;;4.80;;
65552;SDS011;52465;51.560;14.368;2022-08-16T06:50:47;6.93;;;5.20;;
65552;SDS011;52465;51.560;14.368;2022-08-16T06:53:14;5.72;;;5.03;;
65552;SDS011;52465;51.560;14.368;2022-08-16T06:55:39;7.13;;;4.82;;
65552;SDS011;52465;51.560;14.368;2022-08-16T06:58:07;7.80;;;5.20;;
65552;SDS011;52465;51.560;14.368;2022-08-16T07:00:32;7.00;;;5.30;;
65552;SDS011;52465;51.560;14.368;2022-08-16T07:02:57;7.35;;;4.78;;
65552;SDS011;52465;51.560;14.368;2022-08-16T07:05:23;6.15;;;4.80;;
65552;SDS011;52465;51.560;14.368;2022-08-16T07:07:48;5.50;;;4.85;;
65552;SDS011;52465;51.560;14.368;2022-08-16T07:10:16;6.07;;;4.75;;
65552;SDS011;52465;51.560;14.368;2022-08-16T07:12:42;5.28;;;4.75;;
65552;SDS011;52465;51.560;14.368;2022-08-16T07:15:08;4.80;;;4.15;;
65552;SDS011;52465;51.560;14.368;2022-08-16T07:17:34;5.85;;;4.50;;
65552;SDS011;52465;51.560;14.368;2022-08-16T07:20:00;5.25;;;4.22;;
65552;SDS011;52465;51.560;14.368;2022-08-16T07:22:27;5.68;;;4.40;;
65552;SDS011;52465;51.560;14.368;2022-08-16T07:24:53;6.00;;;4.40;;
65552;SDS011;52465;51.560;14.368;2022-08-16T07:27:18;6.10;;;4.88;;
65552;SDS011;52465;51.560;14.368;2022-08-16T07:29:43;6.57;;;4.05;;
65552;SDS011;52465;51.560;14.368;2022-08-16T07:32:09;6.70;;;4.68;;
65552;SDS011;52465;51.560;14.368;2022-08-16T07:34:35;5.95;;;4.57;;
65552;SDS011;52465;51.560;14.368;2022-08-16T07:37:03;5.05;;;4.10;;
65552;SDS011;52465;51.560;14.368;2022-08-16T07:39:30;4.60;;;4.10;;
65552;SDS011;52465;51.560;14.368;2022-08-16T07:41:55;5.05;;;4.20;;
65552;SDS011;52465;51.560;14.368;2022-08-16T07:44:20;4.72;;;4.13;;
65552;SDS011;52465;51.560;14.368;2022-08-16T07:46:45;5.95;;;4.20;;
65552;SDS011;52465;51.560;14.368;2022-08-16T07:49:11;5.47;;;3.73;;
65552;SDS011;52465;51.560;14.368;2022-08-16T07:51:36;5.63;;;4.18;;
65552;SDS011;52465;51.560;14.368;2022-08-16T07:54:03;5.30;;;4.15;;
65552;SDS011;52465;51.560;14.368;2022-08-16T07:56:29;5.47;;;3.60;;
65552;SDS011;52465;51.560;14.368;2022-08-16T07:58:55;4.30;;;3.42;;
65552;SDS011;52465;51.560;14.368;2022-08-16T08:01:21;3.92;;;3.30;;
65552;SDS011;52465;51.560;14.368;2022-08-16T08:03:49;3.78;;;3.10;;
65552;SDS011;52465;51.560;14.368;2022-08-16T08:06:17;4.60;;;3.63;;
65552;SDS011;52465;51.560;14.368;2022-08-16T08:08:44;3.75;;;3.33;;
65552;SDS011;52465;51.560;14.368;2022-08-16T08:11:09;4.88;;;3.55;;
65552;SDS011;52465;51.560;14.368;2022-08-16T08:13:34;3.33;;;2.92;;
65552;SDS011;52465;51.560;14.368;2022-08-16T08:16:00;4.43;;;3.38;;
65552;SDS011;52465;51.560;14.368;2022-08-16T08:18:25;3.90;;;3.47;;
65552;SDS011;52465;51.560;14.368;2022-08-16T08:20:51;3.80;;;3.40;;
65552;SDS011;52465;51.560;14.368;2022-08-16T08:23:16;3.97;;;3.20;;
65552;SDS011;52465;51.560;14.368;2022-08-16T08:25:42;3.28;;;2.80;;
65552;SDS011;52465;51.560;14.368;2022-08-16T08:28:09;3.40;;;3.10;;
65552;SDS011;52465;51.560;14.368;2022-08-16T08:30:34;4.43;;;3.03;;
65552;SDS011;52465;51.560;14.368;2022-08-16T08:33:00;3.33;;;2.80;;
65552;SDS011;52465;51.560;14.368;2022-08-16T08:35:26;3.42;;;3.08;;
65552;SDS011;52465;51.560;14.368;2022-08-16T08:37:51;3.42;;;2.70;;
65552;SDS011;52465;51.560;14.368;2022-08-16T08:40:17;4.07;;;3.03;;
65552;SDS011;52465;51.560;14.368;2022-08-16T08:42:42;3.58;;;2.97;;
65552;SDS011;52465;51.560;14.368;2022-08-16T08:45:09;3.03;;;2.70;;
65552;SDS011;52465;51.560;14.368;2022-08-16T08:47:36;3.50;;;2.70;;
65552;SDS011;52465;51.560;14.368;2022-08-16T08:50:02;3.50;;;2.92;;
65552;SDS011;52465;51.560;14.368;2022-08-16T08:52:28;3.38;;;2.67;;
65552;SDS011;52465;51.560;14.368;2022-08-16T08:54:54;4.10;;;2.90;;
65552;SDS011;52465;51.560;14.368;2022-08-16T08:57:19;3.70;;;2.88;;
65552;SDS011;52465;51.560;14.368;2022-08-16T08:59:45;3.53;;;2.83;;
65552;SDS011;52465;51.560;14.368;2022-08-16T09:02:11;2.72;;;2.45;;
65552;SDS011;52465;51.560;14.368;2022-08-16T09:04:40;3.28;;;2.83;;
65552;SDS011;52465;51.560;14.368;2022-08-16T09:07:07;2.88;;;2.45;;
65552;SDS011;52465;51.560;14.368;2022-08-16T09:09:32;2.88;;;2.55;;
65552;SDS011;52465;51.560;14.368;2022-08-16T09:11:57;3.67;;;2.77;;
65552;SDS011;52465;51.560;14.368;2022-08-16T09:14:23;4.32;;;2.88;;
65552;SDS011;52465;51.560;14.368;2022-08-16T09:16:48;3.08;;;2.78;;
65552;SDS011;52465;51.560;14.368;2022-08-16T09:19:15;3.05;;;2.50;;
65552;SDS011;52465;51.560;14.368;2022-08-16T09:21:41;3.97;;;3.08;;
65552;SDS011;52465;51.560;14.368;2022-08-16T09:24:06;3.13;;;2.58;;
65552;SDS011;52465;51.560;14.368;2022-08-16T09:26:32;5.05;;;2.70;;
65552;SDS011;52465;51.560;14.368;2022-08-16T09:28:57;3.15;;;2.60;;
65552;SDS011;52465;51.560;14.368;2022-08-16T09:31:22;2.55;;;2.30;;
65552;SDS011;52465;51.560;14.368;2022-08-16T09:33:48;3.53;;;2.50;;
65552;SDS011;52465;51.560;14.368;2022-08-16T09:36:15;2.80;;;2.50;;
65552;SDS011;52465;51.560;14.368;2022-08-16T09:38:40;3.05;;;2.75;;
65552;SDS011;52465;51.560;14.368;2022-08-16T09:41:07;2.95;;;2.50;;
65552;SDS011;52465;51.560;14.368;2022-08-16T09:43:34;2.55;;;2.35;;
65552;SDS011;52465;51.560;14.368;2022-08-16T09:46:01;3.47;;;2.65;;
65552;SDS011;52465;51.560;14.368;2022-08-16T09:48:29;2.97;;;2.63;;
65552;SDS011;52465;51.560;14.368;2022-08-16T09:50:56;2.72;;;2.50;;
65552;SDS011;52465;51.560;14.368;2022-08-16T09:53:22;3.30;;;3.00;;
65552;SDS011;52465;51.560;14.368;2022-08-16T09:55:49;3.45;;;2.88;;
65552;SDS011;52465;51.560;14.368;2022-08-16T09:58:17;3.17;;;2.67;;
65552;SDS011;52465;51.560;14.368;2022-08-16T10:00:43;3.17;;;2.85;;
65552;SDS011;52465;51.560;14.368;2022-08-16T10:03:09;3.37;;;2.53;;
65552;SDS011;52465;51.560;14.368;2022-08-16T10:05:34;2.97;;;2.65;;
65552;SDS011;52465;51.560;14.368;2022-08-16T10:08:05;2.70;;;2.50;;
65552;SDS011;52465;51.560;14.368;2022-08-16T10:10:31;2.97;;;2.63;;
65552;SDS011;52465;51.560;14.368;2022-08-16T10:12:58;2.90;;;2.60;;
65552;SDS011;52465;51.560;14.368;2022-08-16T10:15:36;3.10;;;2.60;;
65552;SDS011;52465;51.560;14.368;2022-08-16T10:18:04;3.85;;;2.92;;
65552;SDS011;52465;51.560;14.368;2022-08-16T10:20:32;3.05;;;2.75;;
65552;SDS011;52465;51.560;14.368;2022-08-16T10:23:01;3.73;;;3.13;;
65552;SDS011;52465;51.560;14.368;2022-08-16T10:25:32;3.35;;;2.92;;
65552;SDS011;52465;51.560;14.368;2022-08-16T10:27:58;3.47;;;2.80;;
65552;SDS011;52465;51.560;14.368;2022-08-16T10:30:24;3.15;;;2.85;;
65552;SDS011;52465;51.560;14.368;2022-08-16T10:32:49;3.20;;;2.70;;
65552;SDS011;52465;51.560;14.368;2022-08-16T10:35:15;2.97;;;2.65;;
65552;SDS011;52465;51.560;14.368;2022-08-16T10:37:40;2.75;;;2.53;;
65552;SDS011;52465;51.560;14.368;2022-08-16T10:40:06;2.83;;;2.60;;
65552;SDS011;52465;51.560;14.368;2022-08-16T10:42:33;3.28;;;2.83;;
65552;SDS011;52465;51.560;14.368;2022-08-16T10:44:58;3.20;;;2.90;;
65552;SDS011;52465;51.560;14.368;2022-08-16T10:47:23;3.40;;;2.80;;
65552;SDS011;52465;51.560;14.368;2022-08-16T10:49:50;3.70;;;2.90;;
65552;SDS011;52465;51.560;14.368;2022-08-16T10:52:15;4.50;;;3.10;;
65552;SDS011;52465;51.560;14.368;2022-08-16T10:54:41;3.63;;;3.13;;
65552;SDS011;52465;51.560;14.368;2022-08-16T10:57:06;3.15;;;2.85;;
65552;SDS011;52465;51.560;14.368;2022-08-16T10:59:32;3.75;;;2.80;;
65552;SDS011;52465;51.560;14.368;2022-08-16T11:01:59;3.10;;;2.80;;
65552;SDS011;52465;51.560;14.368;2022-08-16T11:04:25;3.70;;;2.88;;
65552;SDS011;52465;51.560;14.368;2022-08-16T11:06:51;4.25;;;3.05;;
65552;SDS011;52465;51.560;14.368;2022-08-16T11:09:17;3.05;;;2.78;;
65552;SDS011;52465;51.560;14.368;2022-08-16T11:11:42;2.85;;;2.55;;
65552;SDS011;52465;51.560;14.368;2022-08-16T11:14:07;3.53;;;2.97;;
65552;SDS011;52465;51.560;14.368;2022-08-16T11:16:33;4.18;;;3.20;;
65552;SDS011;52465;51.560;14.368;2022-08-16T11:18:59;3.45;;;2.90;;
65552;SDS011;52465;51.560;14.368;2022-08-16T11:21:24;3.10;;;2.80;;
65552;SDS011;52465;51.560;14.368;2022-08-16T11:23:50;4.38;;;3.22;;
65552;SDS011;52465;51.560;14.368;2022-08-16T11:26:19;3.25;;;2.95;;
65552;SDS011;52465;51.560;14.368;2022-08-16T11:28:45;3.30;;;2.93;;
65552;SDS011;52465;51.560;14.368;2022-08-16T11:31:12;4.43;;;2.75;;
65552;SDS011;52465;51.560;14.368;2022-08-16T11:33:37;2.87;;;2.50;;
65552;SDS011;52465;51.560;14.368;2022-08-16T11:36:03;3.63;;;2.80;;
65552;SDS011;52465;51.560;14.368;2022-08-16T11:38:28;3.33;;;2.97;;
65552;SDS011;52465;51.560;14.368;2022-08-16T11:40:56;3.17;;;2.88;;
65552;SDS011;52465;51.560;14.368;2022-08-16T11:43:24;3.38;;;2.80;;
65552;SDS011;52465;51.560;14.368;2022-08-16T11:45:52;2.97;;;2.67;;
65552;SDS011;52465;51.560;14.368;2022-08-16T11:48:21;2.97;;;2.70;;
65552;SDS011;52465;51.560;14.368;2022-08-16T11:50:48;3.10;;;2.80;;
65552;SDS011;52465;51.560;14.368;2022-08-16T11:53:13;2.92;;;2.50;;
65552;SDS011;52465;51.560;14.368;2022-08-16T11:55:39;2.80;;;2.60;;
65552;SDS011;52465;51.560;14.368;2022-08-16T11:58:08;3.10;;;2.80;;
65552;SDS011;52465;51.560;14.368;2022-08-16T12:00:34;3.53;;;2.70;;
65552;SDS011;52465;51.560;14.368;2022-08-16T12:03:01;2.80;;;2.60;;
65552;SDS011;52465;51.560;14.368;2022-08-16T12:05:27;3.55;;;2.92;;
65552;SDS011;52465;51.560;14.368;2022-08-16T12:07:53;2.88;;;2.58;;
65552;SDS011;52465;51.560;14.368;2022-08-16T12:10:19;3.20;;;2.53;;
65552;SDS011;52465;51.560;14.368;2022-08-16T12:12:46;3.75;;;2.90;;
65552;SDS011;52465;51.560;14.368;2022-08-16T12:15:12;4.05;;;3.13;;
65552;SDS011;52465;51.560;14.368;2022-08-16T12:17:39;2.70;;;2.50;;
65552;SDS011;52465;51.560;14.368;2022-08-16T12:20:08;3.08;;;2.78;;
65552;SDS011;52465;51.560;14.368;2022-08-16T12:25:06;2.60;;;2.40;;
65552;SDS011;52465;51.560;14.368;2022-08-16T12:27:35;2.90;;;2.60;;
65552;SDS011;52465;51.560;14.368;2022-08-16T12:30:02;3.03;;;2.72;;
65552;SDS011;52465;51.560;14.368;2022-08-16T12:32:28;3.00;;;2.70;;
65552;SDS011;52465;51.560;14.368;2022-08-16T12:34:53;2.97;;;2.67;;
65552;SDS011;52465;51.560;14.368;2022-08-16T12:37:19;3.33;;;2.60;;
65552;SDS011;52465;51.560;14.368;2022-08-16T12:39:45;3.00;;;2.70;;
65552;SDS011;52465;51.560;14.368;2022-08-16T12:42:10;3.30;;;2.80;;
65552;SDS011;52465;51.560;14.368;2022-08-16T12:44:36;3.15;;;2.88;;
65552;SDS011;52465;51.560;14.368;2022-08-16T12:47:02;3.03;;;2.72;;
65552;SDS011;52465;51.560;14.368;2022-08-16T12:49:51;3.22;;;2.92;;
65552;SDS011;52465;51.560;14.368;2022-08-16T12:52:16;4.32;;;3.15;;
65552;SDS011;52465;51.560;14.368;2022-08-16T12:54:42;3.30;;;2.78;;
65552;SDS011;52465;51.560;14.368;2022-08-16T12:57:07;3.42;;;2.95;;
65552;SDS011;52465;51.560;14.368;2022-08-16T12:59:33;3.08;;;2.58;;
65552;SDS011;52465;51.560;14.368;2022-08-16T13:02:00;2.88;;;2.65;;
65552;SDS011;52465;51.560;14.368;2022-08-16T13:04:28;3.20;;;2.80;;
65552;SDS011;52465;51.560;14.368;2022-08-16T13:06:54;3.20;;;2.72;;
65552;SDS011;52465;51.560;14.368;2022-08-16T13:09:21;3.10;;;2.80;;
65552;SDS011;52465;51.560;14.368;2022-08-16T13:14:31;3.42;;;3.05;;
65552;SDS011;52465;51.560;14.368;2022-08-16T13:17:03;3.65;;;2.67;;
65552;SDS011;52465;51.560;14.368;2022-08-16T13:19:31;3.83;;;2.70;;
65552;SDS011;52465;51.560;14.368;2022-08-16T13:21:56;3.33;;;2.80;;
65552;SDS011;52465;51.560;14.368;2022-08-16T13:24:21;3.08;;;2.78;;
65552;SDS011;52465;51.560;14.368;2022-08-16T13:26:47;3.15;;;2.85;;
65552;SDS011;52465;51.560;14.368;2022-08-16T13:29:12;2.92;;;2.63;;
65552;SDS011;52465;51.560;14.368;2022-08-16T13:31:37;3.40;;;3.10;;
65552;SDS011;52465;51.560;14.368;2022-08-16T13:34:03;3.38;;;3.08;;
65552;SDS011;52465;51.560;14.368;2022-08-16T13:36:28;3.17;;;2.88;;
65552;SDS011;52465;51.560;14.368;2022-08-16T13:38:54;3.75;;;3.08;;
65552;SDS011;52465;51.560;14.368;2022-08-16T13:41:20;3.20;;;2.90;;
65552;SDS011;52465;51.560;14.368;2022-08-16T13:43:45;2.90;;;2.70;;
65552;SDS011;52465;51.560;14.368;2022-08-16T13:46:11;3.10;;;2.80;;
65552;SDS011;52465;51.560;14.368;2022-08-16T13:48:36;3.13;;;2.83;;
65552;SDS011;52465;51.560;14.368;2022-08-16T13:51:02;2.90;;;2.60;;
65552;SDS011;52465;51.560;14.368;2022-08-16T13:53:28;4.70;;;3.00;;
65552;SDS011;52465;51.560;14.368;2022-08-16T13:55:54;4.78;;;2.95;;
65552;SDS011;52465;51.560;14.368;2022-08-16T13:58:20;2.97;;;2.67;;
65552;SDS011;52465;51.560;14.368;2022-08-16T14:00:46;2.83;;;2.53;;
65552;SDS011;52465;51.560;14.368;2022-08-16T14:03:12;3.03;;;2.67;;
65552;SDS011;52465;51.560;14.368;2022-08-16T14:05:38;3.17;;;2.88;;
65552;SDS011;52465;51.560;14.368;2022-08-16T14:08:04;3.33;;;2.80;;
65552;SDS011;52465;51.560;14.368;2022-08-16T14:10:30;2.83;;;2.63;;
65552;SDS011;52465;51.560;14.368;2022-08-16T14:12:56;2.72;;;2.42;;
65552;SDS011;52465;51.560;14.368;2022-08-16T14:15:21;3.20;;;2.90;;
65552;SDS011;52465;51.560;14.368;2022-08-16T14:17:46;2.78;;;2.58;;
65552;SDS011;52465;51.560;14.368;2022-08-16T14:20:12;3.35;;;2.83;;
65552;SDS011;52465;51.560;14.368;2022-08-16T14:22:38;3.03;;;2.70;;
65552;SDS011;52465;51.560;14.368;2022-08-16T14:25:06;2.88;;;2.63;;
65552;SDS011;52465;51.560;14.368;2022-08-16T14:27:34;3.47;;;2.80;;
65552;SDS011;52465;51.560;14.368;2022-08-16T14:30:02;3.50;;;2.92;;
65552;SDS011;52465;51.560;14.368;2022-08-16T14:32:29;3.10;;;2.80;;
65552;SDS011;52465;51.560;14.368;2022-08-16T14:34:55;3.00;;;2.70;;